This is the latest recevied weather packets stored in our database for station/object F6ZBX-10. If no packets are shown the sender has not sent any weather packets the latest 10 day(s).
| Time | Temp. | Humidity | Pressure | Rain* | Wind** | Luminosity | Snow |
|---|---|---|---|---|---|---|---|
| 1788562269 | 28.33° C | 51% | 1024.3 hPa | - | - | - | - |
| 1788561369 | 28.33° C | 51% | 1024.4 hPa | - | - | - | - |
| 1788560469 | 28.33° C | 51% | 1024.3 hPa | - | - | - | - |
| 1788559569 | 28.89° C | 51% | 1024.3 hPa | - | - | - | - |
| 1788558669 | 28.89° C | 51% | 1024.2 hPa | - | - | - | - |
| 1788557769 | 28.89° C | 51% | 1024.2 hPa | - | - | - | - |
| 1788556869 | 28.89° C | 51% | 1024.3 hPa | - | - | - | - |
| 1788555969 | 28.89° C | 51% | 1024.3 hPa | - | - | - | - |
| 1788555070 | 28.89° C | 51% | 1024.2 hPa | - | - | - | - |
| 1788554169 | 28.89° C | 51% | 1023.9 hPa | - | - | - | - |
| 1788553269 | 28.89° C | 51% | 1023.6 hPa | - | - | - | - |
| 1788552372 | 28.89° C | 52% | 1023.4 hPa | - | - | - | - |
| 1788551469 | 28.33° C | 52% | 1023.1 hPa | - | - | - | - |
| 1788550569 | 28.33° C | 52% | 1022.9 hPa | - | - | - | - |
| 1788549669 | 28.33° C | 52% | 1022.3 hPa | - | - | - | - |
| 1788548769 | 28.33° C | 54% | 1022 hPa | - | - | - | - |
| 1788547869 | 28.89° C | 52% | 1021.5 hPa | - | - | - | - |
| 1788546969 | 29.44° C | 49% | 1021.1 hPa | - | - | - | - |
| 1788546070 | 29.44° C | 48% | 1020.9 hPa | - | - | - | - |
| 1788545170 | 28.33° C | 46% | 1018.2 hPa | - | - | - | - |
| 1788544270 | 29.44° C | 45% | 1020.7 hPa | - | - | - | - |
| 1788543370 | 29.44° C | 45% | 1020.5 hPa | - | - | - | - |
| 1788542470 | 30° C | 44% | 1020.3 hPa | - | - | - | - |
| 1788540670 | 30° C | 43% | 1020.1 hPa | - | - | - | - |
| 1788539779 | 29.44° C | 42% | 1020.2 hPa | - | - | - | - |
* Rain since midnight (hover to see other rain measurements)
** Current wind speed in m/s (hover to see current wind gust speed)